sensor_id;sensor_type;location;lat;lon;timestamp;P1;durP1;ratioP1;P2;durP2;ratioP2
2434;SDS011;1228;51.022;6.764;2023-04-24T00:00:53;5.40;;;5.10;;
2434;SDS011;1228;51.022;6.764;2023-04-24T00:03:21;5.50;;;5.10;;
2434;SDS011;1228;51.022;6.764;2023-04-24T00:05:48;4.70;;;4.50;;
2434;SDS011;1228;51.022;6.764;2023-04-24T00:08:13;5.57;;;5.13;;
2434;SDS011;1228;51.022;6.764;2023-04-24T00:10:39;5.03;;;4.83;;
2434;SDS011;1228;51.022;6.764;2023-04-24T00:13:05;5.10;;;4.80;;
2434;SDS011;1228;51.022;6.764;2023-04-24T00:15:31;4.70;;;4.50;;
2434;SDS011;1228;51.022;6.764;2023-04-24T00:17:57;4.97;;;4.67;;
2434;SDS011;1228;51.022;6.764;2023-04-24T00:20:23;4.60;;;4.40;;
2434;SDS011;1228;51.022;6.764;2023-04-24T00:22:48;5.00;;;4.80;;
2434;SDS011;1228;51.022;6.764;2023-04-24T00:25:14;4.67;;;4.47;;
2434;SDS011;1228;51.022;6.764;2023-04-24T00:27:40;4.57;;;4.37;;
2434;SDS011;1228;51.022;6.764;2023-04-24T00:30:05;5.00;;;4.70;;
2434;SDS011;1228;51.022;6.764;2023-04-24T00:32:32;4.20;;;4.00;;
2434;SDS011;1228;51.022;6.764;2023-04-24T00:34:57;4.60;;;4.40;;
2434;SDS011;1228;51.022;6.764;2023-04-24T00:37:23;4.40;;;4.20;;
2434;SDS011;1228;51.022;6.764;2023-04-24T00:39:48;5.77;;;5.00;;
2434;SDS011;1228;51.022;6.764;2023-04-24T00:42:14;4.70;;;4.50;;
2434;SDS011;1228;51.022;6.764;2023-04-24T00:44:40;4.60;;;4.40;;
2434;SDS011;1228;51.022;6.764;2023-04-24T00:47:05;4.47;;;4.27;;
2434;SDS011;1228;51.022;6.764;2023-04-24T00:49:32;4.50;;;4.30;;
2434;SDS011;1228;51.022;6.764;2023-04-24T00:51:57;4.53;;;4.33;;
2434;SDS011;1228;51.022;6.764;2023-04-24T00:54:24;5.33;;;4.97;;
2434;SDS011;1228;51.022;6.764;2023-04-24T00:56:50;4.63;;;4.43;;
2434;SDS011;1228;51.022;6.764;2023-04-24T00:59:16;4.77;;;4.47;;
2434;SDS011;1228;51.022;6.764;2023-04-24T01:01:43;4.93;;;4.73;;
2434;SDS011;1228;51.022;6.764;2023-04-24T01:04:10;5.97;;;5.47;;
2434;SDS011;1228;51.022;6.764;2023-04-24T01:06:40;5.13;;;4.93;;
2434;SDS011;1228;51.022;6.764;2023-04-24T01:09:08;5.53;;;5.13;;
2434;SDS011;1228;51.022;6.764;2023-04-24T01:11:36;5.30;;;5.00;;
2434;SDS011;1228;51.022;6.764;2023-04-24T01:14:02;5.90;;;5.57;;
2434;SDS011;1228;51.022;6.764;2023-04-24T01:16:27;5.00;;;4.70;;
2434;SDS011;1228;51.022;6.764;2023-04-24T01:18:53;5.50;;;5.20;;
2434;SDS011;1228;51.022;6.764;2023-04-24T01:21:19;5.37;;;5.13;;
2434;SDS011;1228;51.022;6.764;2023-04-24T01:23:46;5.53;;;5.23;;
2434;SDS011;1228;51.022;6.764;2023-04-24T01:26:12;6.50;;;6.10;;
2434;SDS011;1228;51.022;6.764;2023-04-24T01:28:40;6.47;;;5.97;;
2434;SDS011;1228;51.022;6.764;2023-04-24T01:31:06;6.47;;;6.03;;
2434;SDS011;1228;51.022;6.764;2023-04-24T01:33:32;8.03;;;6.13;;
2434;SDS011;1228;51.022;6.764;2023-04-24T01:35:58;6.10;;;5.70;;
2434;SDS011;1228;51.022;6.764;2023-04-24T01:38:23;5.57;;;5.27;;
2434;SDS011;1228;51.022;6.764;2023-04-24T01:40:49;6.57;;;5.93;;
2434;SDS011;1228;51.022;6.764;2023-04-24T01:43:16;6.80;;;6.40;;
2434;SDS011;1228;51.022;6.764;2023-04-24T01:45:41;6.27;;;5.87;;
2434;SDS011;1228;51.022;6.764;2023-04-24T01:48:07;6.97;;;6.50;;
2434;SDS011;1228;51.022;6.764;2023-04-24T01:50:33;7.93;;;7.17;;
2434;SDS011;1228;51.022;6.764;2023-04-24T01:52:58;6.53;;;6.13;;
2434;SDS011;1228;51.022;6.764;2023-04-24T01:55:24;6.73;;;6.23;;
2434;SDS011;1228;51.022;6.764;2023-04-24T01:57:50;6.80;;;6.20;;
2434;SDS011;1228;51.022;6.764;2023-04-24T02:00:19;7.00;;;6.50;;
2434;SDS011;1228;51.022;6.764;2023-04-24T02:02:44;7.17;;;6.57;;
2434;SDS011;1228;51.022;6.764;2023-04-24T02:05:10;10.77;;;9.47;;
2434;SDS011;1228;51.022;6.764;2023-04-24T02:07:36;12.73;;;11.83;;
2434;SDS011;1228;51.022;6.764;2023-04-24T02:10:02;10.90;;;10.03;;
2434;SDS011;1228;51.022;6.764;2023-04-24T02:12:29;9.07;;;8.27;;
2434;SDS011;1228;51.022;6.764;2023-04-24T02:14:54;10.93;;;10.23;;
2434;SDS011;1228;51.022;6.764;2023-04-24T02:17:20;11.10;;;10.17;;
2434;SDS011;1228;51.022;6.764;2023-04-24T02:19:46;9.50;;;8.80;;
2434;SDS011;1228;51.022;6.764;2023-04-24T02:22:11;9.37;;;8.57;;
2434;SDS011;1228;51.022;6.764;2023-04-24T02:24:37;7.97;;;7.10;;
2434;SDS011;1228;51.022;6.764;2023-04-24T02:27:03;7.93;;;7.27;;
2434;SDS011;1228;51.022;6.764;2023-04-24T02:29:29;7.90;;;7.10;;
2434;SDS011;1228;51.022;6.764;2023-04-24T02:31:55;7.73;;;7.13;;
2434;SDS011;1228;51.022;6.764;2023-04-24T02:34:21;7.80;;;7.10;;
2434;SDS011;1228;51.022;6.764;2023-04-24T02:36:48;8.23;;;7.63;;
2434;SDS011;1228;51.022;6.764;2023-04-24T02:39:13;8.07;;;7.37;;
2434;SDS011;1228;51.022;6.764;2023-04-24T02:41:41;7.70;;;7.10;;
2434;SDS011;1228;51.022;6.764;2023-04-24T02:44:10;8.50;;;7.80;;
2434;SDS011;1228;51.022;6.764;2023-04-24T02:46:36;7.57;;;7.03;;
2434;SDS011;1228;51.022;6.764;2023-04-24T02:49:01;8.27;;;7.00;;
2434;SDS011;1228;51.022;6.764;2023-04-24T02:51:27;7.40;;;6.87;;
2434;SDS011;1228;51.022;6.764;2023-04-24T02:53:53;8.00;;;6.83;;
2434;SDS011;1228;51.022;6.764;2023-04-24T02:56:18;6.93;;;6.33;;
2434;SDS011;1228;51.022;6.764;2023-04-24T02:58:44;8.00;;;7.30;;
2434;SDS011;1228;51.022;6.764;2023-04-24T03:01:10;8.50;;;7.70;;
2434;SDS011;1228;51.022;6.764;2023-04-24T03:03:36;8.67;;;7.97;;
2434;SDS011;1228;51.022;6.764;2023-04-24T03:06:03;8.33;;;7.83;;
2434;SDS011;1228;51.022;6.764;2023-04-24T03:08:30;12.90;;;9.57;;
2434;SDS011;1228;51.022;6.764;2023-04-24T03:10:56;8.43;;;7.77;;
2434;SDS011;1228;51.022;6.764;2023-04-24T03:13:22;10.70;;;7.97;;
2434;SDS011;1228;51.022;6.764;2023-04-24T03:15:48;9.23;;;6.77;;
2434;SDS011;1228;51.022;6.764;2023-04-24T03:18:13;7.77;;;7.13;;
2434;SDS011;1228;51.022;6.764;2023-04-24T03:20:39;8.03;;;7.33;;
2434;SDS011;1228;51.022;6.764;2023-04-24T03:23:06;8.50;;;7.70;;
2434;SDS011;1228;51.022;6.764;2023-04-24T03:25:31;7.80;;;7.10;;
2434;SDS011;1228;51.022;6.764;2023-04-24T03:27:57;9.13;;;7.40;;
2434;SDS011;1228;51.022;6.764;2023-04-24T03:30:22;9.10;;;8.23;;
2434;SDS011;1228;51.022;6.764;2023-04-24T03:32:48;7.83;;;7.23;;
2434;SDS011;1228;51.022;6.764;2023-04-24T03:35:13;8.40;;;7.60;;
2434;SDS011;1228;51.022;6.764;2023-04-24T03:37:39;7.97;;;7.17;;
2434;SDS011;1228;51.022;6.764;2023-04-24T03:40:05;8.03;;;7.23;;
2434;SDS011;1228;51.022;6.764;2023-04-24T03:42:32;10.23;;;6.87;;
2434;SDS011;1228;51.022;6.764;2023-04-24T03:44:57;8.37;;;7.70;;
2434;SDS011;1228;51.022;6.764;2023-04-24T03:47:23;8.93;;;8.03;;
2434;SDS011;1228;51.022;6.764;2023-04-24T03:49:48;9.17;;;8.37;;
2434;SDS011;1228;51.022;6.764;2023-04-24T03:52:14;7.57;;;6.97;;
2434;SDS011;1228;51.022;6.764;2023-04-24T03:54:40;8.97;;;7.30;;
2434;SDS011;1228;51.022;6.764;2023-04-24T03:57:06;8.03;;;7.33;;
2434;SDS011;1228;51.022;6.764;2023-04-24T03:59:31;8.93;;;8.33;;
2434;SDS011;1228;51.022;6.764;2023-04-24T04:01:57;8.60;;;7.80;;
2434;SDS011;1228;51.022;6.764;2023-04-24T04:04:22;9.23;;;8.43;;
2434;SDS011;1228;51.022;6.764;2023-04-24T04:06:48;8.83;;;8.13;;
2434;SDS011;1228;51.022;6.764;2023-04-24T04:09:13;8.97;;;8.37;;
2434;SDS011;1228;51.022;6.764;2023-04-24T04:11:39;9.40;;;7.03;;
2434;SDS011;1228;51.022;6.764;2023-04-24T04:14:05;7.33;;;6.83;;
2434;SDS011;1228;51.022;6.764;2023-04-24T04:16:31;8.03;;;7.43;;
2434;SDS011;1228;51.022;6.764;2023-04-24T04:18:56;7.50;;;7.00;;
2434;SDS011;1228;51.022;6.764;2023-04-24T04:21:22;8.37;;;7.57;;
2434;SDS011;1228;51.022;6.764;2023-04-24T04:23:47;8.17;;;7.40;;
2434;SDS011;1228;51.022;6.764;2023-04-24T04:26:13;8.57;;;7.63;;
2434;SDS011;1228;51.022;6.764;2023-04-24T04:28:39;7.87;;;7.07;;
2434;SDS011;1228;51.022;6.764;2023-04-24T04:31:05;7.20;;;6.70;;
2434;SDS011;1228;51.022;6.764;2023-04-24T04:33:32;7.33;;;6.83;;
2434;SDS011;1228;51.022;6.764;2023-04-24T04:35:58;7.80;;;7.20;;
2434;SDS011;1228;51.022;6.764;2023-04-24T04:38:25;7.80;;;7.20;;
2434;SDS011;1228;51.022;6.764;2023-04-24T04:40:54;7.97;;;7.37;;
2434;SDS011;1228;51.022;6.764;2023-04-24T04:43:22;7.17;;;6.77;;
2434;SDS011;1228;51.022;6.764;2023-04-24T04:45:49;8.23;;;7.43;;
2434;SDS011;1228;51.022;6.764;2023-04-24T04:48:16;8.10;;;7.40;;
2434;SDS011;1228;51.022;6.764;2023-04-24T04:50:42;8.57;;;7.80;;
2434;SDS011;1228;51.022;6.764;2023-04-24T04:53:08;7.97;;;7.20;;
2434;SDS011;1228;51.022;6.764;2023-04-24T04:55:33;7.77;;;7.17;;
2434;SDS011;1228;51.022;6.764;2023-04-24T04:57:59;7.83;;;6.80;;
2434;SDS011;1228;51.022;6.764;2023-04-24T05:00:25;6.80;;;6.20;;
2434;SDS011;1228;51.022;6.764;2023-04-24T05:02:52;7.00;;;6.40;;
2434;SDS011;1228;51.022;6.764;2023-04-24T05:05:17;7.07;;;6.37;;
2434;SDS011;1228;51.022;6.764;2023-04-24T05:07:44;7.47;;;6.87;;
2434;SDS011;1228;51.022;6.764;2023-04-24T05:10:10;7.43;;;6.60;;
2434;SDS011;1228;51.022;6.764;2023-04-24T05:12:36;7.57;;;6.87;;
2434;SDS011;1228;51.022;6.764;2023-04-24T05:15:01;7.67;;;7.10;;
2434;SDS011;1228;51.022;6.764;2023-04-24T05:17:28;8.03;;;7.43;;
2434;SDS011;1228;51.022;6.764;2023-04-24T05:19:53;7.57;;;7.07;;
2434;SDS011;1228;51.022;6.764;2023-04-24T05:22:19;8.63;;;7.90;;
2434;SDS011;1228;51.022;6.764;2023-04-24T05:24:46;8.40;;;7.47;;
2434;SDS011;1228;51.022;6.764;2023-04-24T05:27:12;8.47;;;7.77;;
2434;SDS011;1228;51.022;6.764;2023-04-24T05:29:37;7.03;;;6.43;;
2434;SDS011;1228;51.022;6.764;2023-04-24T05:32:03;8.37;;;7.77;;
2434;SDS011;1228;51.022;6.764;2023-04-24T05:34:29;10.63;;;9.80;;
2434;SDS011;1228;51.022;6.764;2023-04-24T05:36:55;10.47;;;9.77;;
2434;SDS011;1228;51.022;6.764;2023-04-24T05:39:20;8.00;;;7.40;;
2434;SDS011;1228;51.022;6.764;2023-04-24T05:41:46;7.93;;;7.33;;
2434;SDS011;1228;51.022;6.764;2023-04-24T05:44:12;8.27;;;7.63;;
2434;SDS011;1228;51.022;6.764;2023-04-24T05:46:37;9.00;;;8.30;;
2434;SDS011;1228;51.022;6.764;2023-04-24T05:49:03;8.40;;;7.80;;
2434;SDS011;1228;51.022;6.764;2023-04-24T05:51:28;8.13;;;7.53;;
2434;SDS011;1228;51.022;6.764;2023-04-24T05:53:54;8.43;;;7.83;;
2434;SDS011;1228;51.022;6.764;2023-04-24T05:56:20;10.53;;;9.73;;
2434;SDS011;1228;51.022;6.764;2023-04-24T05:58:46;10.10;;;9.30;;
2434;SDS011;1228;51.022;6.764;2023-04-24T06:01:12;8.80;;;8.10;;
2434;SDS011;1228;51.022;6.764;2023-04-24T06:03:39;9.93;;;9.17;;
2434;SDS011;1228;51.022;6.764;2023-04-24T06:06:05;8.53;;;7.83;;
2434;SDS011;1228;51.022;6.764;2023-04-24T06:08:32;8.67;;;8.07;;
2434;SDS011;1228;51.022;6.764;2023-04-24T06:10:57;8.33;;;7.57;;
2434;SDS011;1228;51.022;6.764;2023-04-24T06:13:23;7.50;;;7.10;;
2434;SDS011;1228;51.022;6.764;2023-04-24T06:15:49;8.17;;;7.60;;
2434;SDS011;1228;51.022;6.764;2023-04-24T06:18:15;6.97;;;6.47;;
2434;SDS011;1228;51.022;6.764;2023-04-24T06:20:40;6.73;;;6.20;;
2434;SDS011;1228;51.022;6.764;2023-04-24T06:23:06;9.63;;;7.63;;
2434;SDS011;1228;51.022;6.764;2023-04-24T06:25:32;6.90;;;6.50;;
2434;SDS011;1228;51.022;6.764;2023-04-24T06:27:57;7.00;;;6.60;;
2434;SDS011;1228;51.022;6.764;2023-04-24T06:30:23;8.03;;;7.53;;
2434;SDS011;1228;51.022;6.764;2023-04-24T06:32:49;8.20;;;5.93;;
2434;SDS011;1228;51.022;6.764;2023-04-24T06:35:14;6.30;;;5.90;;
2434;SDS011;1228;51.022;6.764;2023-04-24T06:37:41;6.67;;;6.37;;
2434;SDS011;1228;51.022;6.764;2023-04-24T06:40:07;8.80;;;8.30;;
2434;SDS011;1228;51.022;6.764;2023-04-24T06:42:33;7.30;;;7.00;;
2434;SDS011;1228;51.022;6.764;2023-04-24T06:44:59;7.10;;;6.60;;
2434;SDS011;1228;51.022;6.764;2023-04-24T06:47:25;7.97;;;7.47;;
2434;SDS011;1228;51.022;6.764;2023-04-24T06:49:51;7.03;;;6.63;;
2434;SDS011;1228;51.022;6.764;2023-04-24T06:52:17;7.67;;;7.17;;
2434;SDS011;1228;51.022;6.764;2023-04-24T06:54:43;6.93;;;6.53;;
2434;SDS011;1228;51.022;6.764;2023-04-24T06:57:09;7.40;;;7.00;;
2434;SDS011;1228;51.022;6.764;2023-04-24T06:59:35;7.33;;;7.03;;
2434;SDS011;1228;51.022;6.764;2023-04-24T07:02:01;7.50;;;7.20;;
2434;SDS011;1228;51.022;6.764;2023-04-24T07:04:28;6.77;;;6.47;;
2434;SDS011;1228;51.022;6.764;2023-04-24T07:06:54;6.30;;;6.00;;
2434;SDS011;1228;51.022;6.764;2023-04-24T07:09:21;6.77;;;6.47;;
2434;SDS011;1228;51.022;6.764;2023-04-24T07:11:48;6.90;;;6.50;;
2434;SDS011;1228;51.022;6.764;2023-04-24T07:14:14;7.30;;;6.80;;
2434;SDS011;1228;51.022;6.764;2023-04-24T07:16:41;7.77;;;7.27;;
2434;SDS011;1228;51.022;6.764;2023-04-24T07:19:07;7.00;;;6.60;;
2434;SDS011;1228;51.022;6.764;2023-04-24T07:21:32;7.43;;;6.93;;
2434;SDS011;1228;51.022;6.764;2023-04-24T07:23:58;8.50;;;7.70;;
2434;SDS011;1228;51.022;6.764;2023-04-24T07:26:25;8.10;;;7.70;;
2434;SDS011;1228;51.022;6.764;2023-04-24T07:28:51;7.43;;;7.03;;
2434;SDS011;1228;51.022;6.764;2023-04-24T07:31:17;7.50;;;6.83;;
2434;SDS011;1228;51.022;6.764;2023-04-24T07:33:42;6.30;;;6.00;;
2434;SDS011;1228;51.022;6.764;2023-04-24T07:36:08;6.80;;;6.40;;
2434;SDS011;1228;51.022;6.764;2023-04-24T07:38:40;9.30;;;5.93;;
2434;SDS011;1228;51.022;6.764;2023-04-24T07:41:06;6.33;;;6.03;;
2434;SDS011;1228;51.022;6.764;2023-04-24T07:43:32;6.77;;;6.27;;
2434;SDS011;1228;51.022;6.764;2023-04-24T07:45:57;6.03;;;5.63;;
2434;SDS011;1228;51.022;6.764;2023-04-24T07:48:23;5.43;;;5.23;;
2434;SDS011;1228;51.022;6.764;2023-04-24T07:50:51;6.23;;;5.93;;
2434;SDS011;1228;51.022;6.764;2023-04-24T07:53:16;6.70;;;6.40;;
2434;SDS011;1228;51.022;6.764;2023-04-24T07:55:42;7.53;;;7.23;;
2434;SDS011;1228;51.022;6.764;2023-04-24T07:58:08;7.03;;;6.63;;
2434;SDS011;1228;51.022;6.764;2023-04-24T08:00:34;6.00;;;5.70;;
2434;SDS011;1228;51.022;6.764;2023-04-24T08:02:59;7.57;;;6.97;;
2434;SDS011;1228;51.022;6.764;2023-04-24T08:05:25;7.50;;;7.03;;
2434;SDS011;1228;51.022;6.764;2023-04-24T08:07:52;6.57;;;6.27;;
2434;SDS011;1228;51.022;6.764;2023-04-24T08:10:18;7.87;;;7.43;;
2434;SDS011;1228;51.022;6.764;2023-04-24T08:12:43;8.90;;;8.07;;
2434;SDS011;1228;51.022;6.764;2023-04-24T08:15:09;8.83;;;8.27;;
2434;SDS011;1228;51.022;6.764;2023-04-24T08:17:35;9.07;;;8.17;;
2434;SDS011;1228;51.022;6.764;2023-04-24T08:20:02;8.00;;;7.40;;
2434;SDS011;1228;51.022;6.764;2023-04-24T08:22:30;9.07;;;8.43;;
2434;SDS011;1228;51.022;6.764;2023-04-24T08:24:56;7.57;;;6.93;;
2434;SDS011;1228;51.022;6.764;2023-04-24T08:27:22;7.30;;;6.80;;
2434;SDS011;1228;51.022;6.764;2023-04-24T08:29:48;9.63;;;8.10;;
2434;SDS011;1228;51.022;6.764;2023-04-24T08:32:14;7.40;;;7.00;;
2434;SDS011;1228;51.022;6.764;2023-04-24T08:34:40;7.77;;;7.20;;
2434;SDS011;1228;51.022;6.764;2023-04-24T08:37:05;8.17;;;7.67;;
2434;SDS011;1228;51.022;6.764;2023-04-24T08:39:31;8.83;;;8.17;;
2434;SDS011;1228;51.022;6.764;2023-04-24T08:41:56;7.60;;;7.10;;
2434;SDS011;1228;51.022;6.764;2023-04-24T08:44:30;8.33;;;7.63;;
2434;SDS011;1228;51.022;6.764;2023-04-24T08:46:57;8.23;;;7.77;;
2434;SDS011;1228;51.022;6.764;2023-04-24T08:49:23;7.47;;;6.87;;
2434;SDS011;1228;51.022;6.764;2023-04-24T08:51:50;8.20;;;7.70;;
2434;SDS011;1228;51.022;6.764;2023-04-24T08:54:18;7.93;;;7.47;;
2434;SDS011;1228;51.022;6.764;2023-04-24T08:56:44;8.50;;;8.00;;
2434;SDS011;1228;51.022;6.764;2023-04-24T08:59:12;8.47;;;7.97;;
2434;SDS011;1228;51.022;6.764;2023-04-24T09:01:39;9.37;;;8.60;;
2434;SDS011;1228;51.022;6.764;2023-04-24T09:04:05;8.70;;;8.10;;
2434;SDS011;1228;51.022;6.764;2023-04-24T09:06:34;8.63;;;7.57;;
2434;SDS011;1228;51.022;6.764;2023-04-24T09:09:00;7.70;;;7.20;;
2434;SDS011;1228;51.022;6.764;2023-04-24T09:11:28;8.17;;;7.57;;
2434;SDS011;1228;51.022;6.764;2023-04-24T09:13:55;8.80;;;8.20;;
2434;SDS011;1228;51.022;6.764;2023-04-24T09:16:21;7.53;;;7.03;;
2434;SDS011;1228;51.022;6.764;2023-04-24T09:18:49;8.23;;;7.67;;
2434;SDS011;1228;51.022;6.764;2023-04-24T09:21:15;7.80;;;7.23;;
2434;SDS011;1228;51.022;6.764;2023-04-24T09:23:40;9.77;;;9.07;;
2434;SDS011;1228;51.022;6.764;2023-04-24T09:26:06;7.73;;;7.13;;
2434;SDS011;1228;51.022;6.764;2023-04-24T09:28:37;9.33;;;8.47;;
2434;SDS011;1228;51.022;6.764;2023-04-24T09:33:53;8.53;;;7.93;;
2434;SDS011;1228;51.022;6.764;2023-04-24T09:36:22;13.03;;;8.33;;
2434;SDS011;1228;51.022;6.764;2023-04-24T09:38:53;8.80;;;8.03;;
2434;SDS011;1228;51.022;6.764;2023-04-24T09:41:22;8.00;;;7.40;;
2434;SDS011;1228;51.022;6.764;2023-04-24T09:43:48;8.67;;;7.57;;
2434;SDS011;1228;51.022;6.764;2023-04-24T09:46:13;9.40;;;8.50;;
2434;SDS011;1228;51.022;6.764;2023-04-24T09:48:39;9.70;;;9.00;;
2434;SDS011;1228;51.022;6.764;2023-04-24T09:51:05;9.03;;;8.43;;
2434;SDS011;1228;51.022;6.764;2023-04-24T09:53:37;9.40;;;8.67;;
2434;SDS011;1228;51.022;6.764;2023-04-24T09:56:10;9.97;;;9.03;;
2434;SDS011;1228;51.022;6.764;2023-04-24T09:58:38;8.67;;;8.07;;
2434;SDS011;1228;51.022;6.764;2023-04-24T10:01:04;9.70;;;8.83;;
2434;SDS011;1228;51.022;6.764;2023-04-24T10:03:30;9.77;;;8.80;;
2434;SDS011;1228;51.022;6.764;2023-04-24T10:06:00;8.33;;;7.73;;
2434;SDS011;1228;51.022;6.764;2023-04-24T10:08:32;8.83;;;7.93;;
2434;SDS011;1228;51.022;6.764;2023-04-24T10:10:59;8.73;;;8.03;;
2434;SDS011;1228;51.022;6.764;2023-04-24T10:13:26;9.53;;;8.50;;
2434;SDS011;1228;51.022;6.764;2023-04-24T10:15:52;8.93;;;8.10;;
2434;SDS011;1228;51.022;6.764;2023-04-24T10:18:19;8.40;;;7.53;;
2434;SDS011;1228;51.022;6.764;2023-04-24T10:20:46;7.70;;;7.10;;
2434;SDS011;1228;51.022;6.764;2023-04-24T10:23:12;8.13;;;7.53;;
2434;SDS011;1228;51.022;6.764;2023-04-24T10:25:38;7.93;;;7.43;;
2434;SDS011;1228;51.022;6.764;2023-04-24T10:28:04;9.37;;;8.77;;
2434;SDS011;1228;51.022;6.764;2023-04-24T10:30:31;8.20;;;7.60;;
2434;SDS011;1228;51.022;6.764;2023-04-24T10:33:01;6.77;;;6.37;;
2434;SDS011;1228;51.022;6.764;2023-04-24T10:35:29;7.90;;;7.30;;
2434;SDS011;1228;51.022;6.764;2023-04-24T10:37:58;9.70;;;7.07;;
2434;SDS011;1228;51.022;6.764;2023-04-24T10:40:31;9.23;;;6.33;;
2434;SDS011;1228;51.022;6.764;2023-04-24T10:43:01;12.33;;;7.20;;
2434;SDS011;1228;51.022;6.764;2023-04-24T10:45:28;9.73;;;7.73;;
2434;SDS011;1228;51.022;6.764;2023-04-24T10:48:01;6.77;;;6.37;;
2434;SDS011;1228;51.022;6.764;2023-04-24T10:50:50;7.47;;;6.73;;
2434;SDS011;1228;51.022;6.764;2023-04-24T10:53:21;11.03;;;6.40;;
2434;SDS011;1228;51.022;6.764;2023-04-24T10:56:08;9.23;;;6.67;;
2434;SDS011;1228;51.022;6.764;2023-04-24T10:58:39;7.63;;;7.10;;
2434;SDS011;1228;51.022;6.764;2023-04-24T11:01:29;7.43;;;6.93;;
2434;SDS011;1228;51.022;6.764;2023-04-24T11:03:58;7.27;;;6.70;;
2434;SDS011;1228;51.022;6.764;2023-04-24T11:09:04;11.13;;;7.90;;
2434;SDS011;1228;51.022;6.764;2023-04-24T11:11:34;12.53;;;7.80;;
2434;SDS011;1228;51.022;6.764;2023-04-24T11:14:03;7.63;;;6.93;;
2434;SDS011;1228;51.022;6.764;2023-04-24T11:26:51;11.93;;;7.50;;
2434;SDS011;1228;51.022;6.764;2023-04-24T11:32:55;6.50;;;6.03;;
2434;SDS011;1228;51.022;6.764;2023-04-24T11:35:17;8.27;;;6.37;;
2434;SDS011;1228;51.022;6.764;2023-04-24T11:37:48;10.10;;;6.73;;
2434;SDS011;1228;51.022;6.764;2023-04-24T11:40:15;7.60;;;6.40;;
2434;SDS011;1228;51.022;6.764;2023-04-24T11:42:45;7.37;;;6.53;;
2434;SDS011;1228;51.022;6.764;2023-04-24T11:45:13;7.13;;;6.43;;
2434;SDS011;1228;51.022;6.764;2023-04-24T11:47:57;6.23;;;5.60;;
2434;SDS011;1228;51.022;6.764;2023-04-24T11:50:24;8.07;;;6.60;;
2434;SDS011;1228;51.022;6.764;2023-04-24T11:52:52;8.70;;;6.63;;
2434;SDS011;1228;51.022;6.764;2023-04-24T11:57:47;9.50;;;5.97;;
2434;SDS011;1228;51.022;6.764;2023-04-24T12:02:46;6.20;;;5.60;;
2434;SDS011;1228;51.022;6.764;2023-04-24T12:05:19;6.63;;;6.03;;
2434;SDS011;1228;51.022;6.764;2023-04-24T12:07:49;8.63;;;7.13;;
2434;SDS011;1228;51.022;6.764;2023-04-24T12:10:19;9.30;;;6.30;;
2434;SDS011;1228;51.022;6.764;2023-04-24T12:12:49;6.83;;;6.23;;
2434;SDS011;1228;51.022;6.764;2023-04-24T12:15:16;9.30;;;6.00;;
2434;SDS011;1228;51.022;6.764;2023-04-24T12:17:43;6.97;;;6.33;;
2434;SDS011;1228;51.022;6.764;2023-04-24T12:20:09;7.57;;;7.07;;
2434;SDS011;1228;51.022;6.764;2023-04-24T12:22:50;7.43;;;6.80;;
2434;SDS011;1228;51.022;6.764;2023-04-24T12:25:16;7.40;;;6.40;;
2434;SDS011;1228;51.022;6.764;2023-04-24T12:27:44;6.57;;;6.17;;
2434;SDS011;1228;51.022;6.764;2023-04-24T12:30:14;7.77;;;7.07;;
2434;SDS011;1228;51.022;6.764;2023-04-24T12:32:44;6.70;;;6.20;;
2434;SDS011;1228;51.022;6.764;2023-04-24T12:35:12;6.87;;;6.33;;
2434;SDS011;1228;51.022;6.764;2023-04-24T12:37:38;5.43;;;5.13;;
2434;SDS011;1228;51.022;6.764;2023-04-24T12:40:08;5.50;;;5.10;;
2434;SDS011;1228;51.022;6.764;2023-04-24T12:42:35;5.00;;;4.60;;
2434;SDS011;1228;51.022;6.764;2023-04-24T12:45:06;5.50;;;5.03;;
2434;SDS011;1228;51.022;6.764;2023-04-24T12:47:33;5.67;;;5.27;;
2434;SDS011;1228;51.022;6.764;2023-04-24T12:49:59;5.40;;;4.80;;
2434;SDS011;1228;51.022;6.764;2023-04-24T12:52:26;9.30;;;5.73;;
2434;SDS011;1228;51.022;6.764;2023-04-24T12:54:53;5.33;;;4.97;;
2434;SDS011;1228;51.022;6.764;2023-04-24T12:57:21;5.37;;;4.40;;
2434;SDS011;1228;51.022;6.764;2023-04-24T12:59:47;5.57;;;5.03;;
2434;SDS011;1228;51.022;6.764;2023-04-24T13:02:12;5.67;;;5.17;;
2434;SDS011;1228;51.022;6.764;2023-04-24T13:04:38;4.80;;;4.60;;
2434;SDS011;1228;51.022;6.764;2023-04-24T13:07:04;6.47;;;5.83;;
2434;SDS011;1228;51.022;6.764;2023-04-24T13:09:30;5.20;;;4.90;;
2434;SDS011;1228;51.022;6.764;2023-04-24T13:11:56;4.87;;;4.53;;
2434;SDS011;1228;51.022;6.764;2023-04-24T13:14:22;5.00;;;4.70;;
2434;SDS011;1228;51.022;6.764;2023-04-24T13:16:48;5.70;;;5.27;;
2434;SDS011;1228;51.022;6.764;2023-04-24T13:19:14;5.47;;;4.97;;
2434;SDS011;1228;51.022;6.764;2023-04-24T13:21:40;4.80;;;4.60;;
2434;SDS011;1228;51.022;6.764;2023-04-24T13:24:05;6.73;;;6.20;;
2434;SDS011;1228;51.022;6.764;2023-04-24T13:26:32;4.83;;;4.53;;
2434;SDS011;1228;51.022;6.764;2023-04-24T13:28:58;5.20;;;4.80;;
2434;SDS011;1228;51.022;6.764;2023-04-24T13:31:24;4.93;;;4.33;;
2434;SDS011;1228;51.022;6.764;2023-04-24T13:33:49;5.43;;;4.70;;
2434;SDS011;1228;51.022;6.764;2023-04-24T13:36:15;5.77;;;4.07;;
2434;SDS011;1228;51.022;6.764;2023-04-24T13:38:42;5.03;;;4.67;;
2434;SDS011;1228;51.022;6.764;2023-04-24T13:41:09;5.33;;;5.03;;
2434;SDS011;1228;51.022;6.764;2023-04-24T13:43:35;4.40;;;4.20;;
2434;SDS011;1228;51.022;6.764;2023-04-24T13:46:00;5.33;;;5.03;;
2434;SDS011;1228;51.022;6.764;2023-04-24T13:48:28;5.27;;;4.87;;
2434;SDS011;1228;51.022;6.764;2023-04-24T13:50:54;5.40;;;4.83;;
2434;SDS011;1228;51.022;6.764;2023-04-24T13:53:19;5.40;;;5.00;;
2434;SDS011;1228;51.022;6.764;2023-04-24T13:55:45;4.77;;;4.57;;
2434;SDS011;1228;51.022;6.764;2023-04-24T13:58:11;5.77;;;5.10;;
2434;SDS011;1228;51.022;6.764;2023-04-24T14:00:36;6.57;;;5.00;;
2434;SDS011;1228;51.022;6.764;2023-04-24T14:03:02;5.20;;;4.83;;
2434;SDS011;1228;51.022;6.764;2023-04-24T14:05:28;5.30;;;4.30;;
2434;SDS011;1228;51.022;6.764;2023-04-24T14:07:53;4.70;;;4.30;;
2434;SDS011;1228;51.022;6.764;2023-04-24T14:10:19;5.87;;;5.27;;
2434;SDS011;1228;51.022;6.764;2023-04-24T14:12:44;4.73;;;4.43;;
2434;SDS011;1228;51.022;6.764;2023-04-24T14:15:10;7.07;;;5.00;;
2434;SDS011;1228;51.022;6.764;2023-04-24T14:17:38;4.83;;;4.43;;
2434;SDS011;1228;51.022;6.764;2023-04-24T14:20:04;5.33;;;4.83;;
2434;SDS011;1228;51.022;6.764;2023-04-24T14:22:30;6.00;;;4.60;;
2434;SDS011;1228;51.022;6.764;2023-04-24T14:24:55;4.87;;;4.47;;
2434;SDS011;1228;51.022;6.764;2023-04-24T14:27:21;5.47;;;5.07;;
2434;SDS011;1228;51.022;6.764;2023-04-24T14:29:46;4.70;;;4.40;;
2434;SDS011;1228;51.022;6.764;2023-04-24T14:32:12;4.57;;;4.17;;
2434;SDS011;1228;51.022;6.764;2023-04-24T14:34:40;4.90;;;4.50;;
2434;SDS011;1228;51.022;6.764;2023-04-24T14:37:06;5.13;;;4.63;;
2434;SDS011;1228;51.022;6.764;2023-04-24T14:39:32;4.87;;;4.37;;
2434;SDS011;1228;51.022;6.764;2023-04-24T14:41:58;4.43;;;4.10;;
2434;SDS011;1228;51.022;6.764;2023-04-24T14:44:23;5.13;;;4.23;;
2434;SDS011;1228;51.022;6.764;2023-04-24T14:46:49;5.10;;;4.70;;
2434;SDS011;1228;51.022;6.764;2023-04-24T14:49:15;4.67;;;4.47;;
2434;SDS011;1228;51.022;6.764;2023-04-24T14:51:40;4.80;;;4.50;;
2434;SDS011;1228;51.022;6.764;2023-04-24T14:54:07;4.83;;;4.43;;
2434;SDS011;1228;51.022;6.764;2023-04-24T14:56:33;4.63;;;4.20;;
2434;SDS011;1228;51.022;6.764;2023-04-24T14:58:58;5.03;;;3.93;;
2434;SDS011;1228;51.022;6.764;2023-04-24T15:01:24;4.00;;;3.80;;
2434;SDS011;1228;51.022;6.764;2023-04-24T15:03:50;4.30;;;3.77;;
2434;SDS011;1228;51.022;6.764;2023-04-24T15:06:15;4.63;;;4.27;;
2434;SDS011;1228;51.022;6.764;2023-04-24T15:08:41;4.37;;;4.07;;
2434;SDS011;1228;51.022;6.764;2023-04-24T15:11:07;5.20;;;4.47;;
2434;SDS011;1228;51.022;6.764;2023-04-24T15:13:34;4.47;;;4.17;;
2434;SDS011;1228;51.022;6.764;2023-04-24T15:16:00;5.27;;;4.67;;
2434;SDS011;1228;51.022;6.764;2023-04-24T15:18:26;4.70;;;4.40;;
2434;SDS011;1228;51.022;6.764;2023-04-24T15:20:53;4.40;;;4.10;;
2434;SDS011;1228;51.022;6.764;2023-04-24T15:23:19;5.20;;;4.80;;
2434;SDS011;1228;51.022;6.764;2023-04-24T15:25:45;4.47;;;4.27;;
2434;SDS011;1228;51.022;6.764;2023-04-24T15:28:11;4.93;;;4.63;;
2434;SDS011;1228;51.022;6.764;2023-04-24T15:30:37;4.60;;;4.40;;
2434;SDS011;1228;51.022;6.764;2023-04-24T15:33:02;6.17;;;5.43;;
2434;SDS011;1228;51.022;6.764;2023-04-24T15:35:28;5.80;;;5.20;;